createdAt,value
2023-05-14T00:00:43.916Z,82.73
2023-05-14T00:03:12.400Z,83.22
2023-05-14T00:05:42.224Z,84.20
2023-05-14T00:08:10.584Z,83.75
2023-05-14T00:10:38.954Z,83.02
2023-05-14T00:13:07.335Z,83.62
2023-05-14T00:15:35.628Z,84.20
2023-05-14T00:18:04.200Z,84.84
2023-05-14T00:20:32.580Z,84.65
2023-05-14T00:23:02.262Z,84.25
2023-05-14T00:25:30.958Z,84.02
2023-05-14T00:27:59.238Z,84.46
2023-05-14T00:30:27.614Z,84.09
2023-05-14T00:32:55.991Z,83.96
2023-05-14T00:35:24.579Z,84.34
2023-05-14T00:37:52.915Z,84.30
2023-05-14T00:40:26.977Z,84.44
2023-05-14T00:42:55.622Z,84.64
2023-05-14T00:45:24.034Z,84.24
2023-05-14T00:47:52.651Z,83.92
2023-05-14T00:50:22.326Z,84.08
2023-05-14T00:52:50.908Z,84.22
2023-05-14T00:55:20.412Z,84.74
2023-05-14T00:57:51.653Z,83.56
2023-05-14T01:00:20.300Z,84.65
2023-05-14T01:02:48.683Z,83.33
2023-05-14T01:05:17.096Z,84.03
2023-05-14T01:07:56.392Z,84.16
2023-05-14T01:10:33.355Z,84.96
2023-05-14T01:13:18.438Z,85.49
2023-05-14T01:15:48.782Z,84.49
2023-05-14T01:18:20.052Z,84.86
2023-05-14T01:20:52.213Z,85.04
2023-05-14T01:23:22.027Z,85.36
2023-05-14T01:25:50.455Z,85.59
2023-05-14T01:28:21.095Z,86.19
2023-05-14T01:31:02.873Z,85.43
2023-05-14T01:33:34.688Z,86.62
2023-05-14T01:36:03.279Z,86.31
2023-05-14T01:38:34.883Z,87.67
2023-05-14T01:41:04.439Z,88.85
2023-05-14T01:43:33.001Z,88.17
2023-05-14T01:46:01.322Z,88.10
2023-05-14T01:48:30.438Z,89.06
2023-05-14T01:50:58.671Z,89.13
2023-05-14T01:53:27.550Z,89.63
2023-05-14T01:55:57.154Z,89.43
2023-05-14T01:58:25.577Z,88.48
2023-05-14T02:00:54.548Z,88.52
2023-05-14T02:03:22.804Z,88.71
2023-05-14T02:05:51.172Z,89.12
2023-05-14T02:08:19.460Z,89.17
2023-05-14T02:10:47.669Z,89.29
2023-05-14T02:13:18.065Z,88.34
2023-05-14T02:15:46.247Z,87.96
2023-05-14T02:18:14.693Z,87.22
2023-05-14T02:20:43.116Z,89.83
2023-05-14T02:23:11.434Z,91.38
2023-05-14T02:25:39.859Z,92.15
2023-05-14T02:28:08.153Z,92.98
2023-05-14T02:30:37.756Z,93.07
2023-05-14T02:33:06.187Z,92.74
2023-05-14T02:35:34.567Z,92.11
2023-05-14T02:38:02.883Z,92.10
2023-05-14T02:40:31.155Z,91.22
2023-05-14T02:42:59.369Z,91.40
2023-05-14T02:45:27.725Z,89.91
2023-05-14T02:47:57.368Z,88.91
2023-05-14T02:50:25.984Z,87.88
2023-05-14T02:52:54.501Z,86.57
2023-05-14T02:55:22.907Z,88.13
2023-05-14T02:57:52.734Z,89.53
2023-05-14T03:00:22.466Z,89.99
2023-05-14T03:02:52.628Z,89.68
2023-05-14T03:05:23.063Z,90.15
2023-05-14T03:07:53.640Z,90.34
2023-05-14T03:10:22.143Z,90.57
2023-05-14T03:12:50.772Z,90.54
2023-05-14T03:15:19.067Z,92.51
2023-05-14T03:17:47.337Z,93.29
2023-05-14T03:20:15.656Z,92.43
2023-05-14T03:22:45.360Z,92.66
2023-05-14T03:25:13.744Z,92.60
2023-05-14T03:27:41.946Z,92.57
2023-05-14T03:30:11.833Z,92.09
2023-05-14T03:32:41.440Z,92.00
2023-05-14T03:35:10.288Z,91.69
2023-05-14T03:37:38.505Z,91.50
2023-05-14T03:40:09.634Z,91.22
2023-05-14T03:42:38.152Z,91.15
2023-05-14T03:45:07.828Z,91.61
2023-05-14T03:47:36.199Z,90.61
2023-05-14T03:50:04.986Z,91.29
2023-05-14T03:52:33.303Z,90.80
2023-05-14T03:55:03.882Z,89.77
2023-05-14T03:57:33.546Z,88.84
2023-05-14T04:00:02.000Z,88.81
2023-05-14T04:02:31.721Z,87.70
2023-05-14T04:05:00.207Z,86.42
2023-05-14T04:07:28.580Z,87.44
2023-05-14T04:09:56.932Z,86.17
2023-05-14T04:12:26.734Z,84.37
2023-05-14T04:14:57.876Z,82.63
2023-05-14T04:17:26.436Z,82.00
2023-05-14T04:19:54.959Z,81.87
2023-05-14T04:22:23.324Z,81.04
2023-05-14T04:24:52.129Z,80.12
2023-05-14T04:27:22.306Z,78.76
2023-05-14T04:29:51.119Z,78.49
2023-05-14T04:32:21.525Z,76.87
2023-05-14T04:34:49.849Z,75.83
2023-05-14T04:37:18.224Z,75.32
2023-05-14T04:39:46.469Z,74.22
2023-05-14T04:42:14.755Z,72.86
2023-05-14T04:44:43.037Z,73.01
2023-05-14T04:47:11.348Z,73.63
2023-05-14T04:49:40.999Z,74.17
2023-05-14T04:52:09.578Z,74.18
2023-05-14T04:54:37.920Z,73.91
2023-05-14T04:57:06.570Z,72.33
2023-05-14T04:59:34.861Z,72.18
2023-05-14T05:02:03.399Z,70.77
2023-05-14T05:04:31.603Z,69.14
2023-05-14T05:07:01.233Z,66.91
2023-05-14T05:09:29.499Z,67.03
2023-05-14T05:11:57.737Z,67.30
2023-05-14T05:14:26.400Z,68.44
2023-05-14T05:16:54.671Z,69.06
2023-05-14T05:19:35.870Z,71.12
2023-05-14T05:22:12.399Z,71.69
2023-05-14T05:24:40.724Z,71.57
2023-05-14T05:27:08.940Z,70.90
2023-05-14T05:29:37.616Z,69.80
2023-05-14T05:32:06.707Z,70.36
2023-05-14T05:34:35.819Z,69.41
2023-05-14T05:37:05.204Z,71.27
2023-05-14T05:39:35.340Z,70.84
2023-05-14T05:42:03.798Z,70.30
2023-05-14T05:44:31.990Z,68.64
2023-05-14T05:47:00.319Z,70.00
2023-05-14T05:49:28.678Z,69.86
2023-05-14T05:51:57.039Z,71.15
2023-05-14T05:54:27.212Z,70.40
2023-05-14T05:56:56.853Z,69.64
2023-05-14T05:59:25.724Z,70.12
2023-05-14T06:01:54.132Z,69.77
2023-05-14T06:04:22.357Z,68.54
2023-05-14T06:06:50.619Z,68.18
2023-05-14T06:09:18.937Z,66.98
2023-05-14T06:11:47.271Z,66.04
2023-05-14T06:14:16.879Z,66.74
2023-05-14T06:16:45.173Z,67.72
2023-05-14T06:19:13.517Z,67.03
2023-05-14T06:21:41.902Z,67.47
2023-05-14T06:24:10.567Z,66.38
2023-05-14T06:26:38.739Z,63.92
2023-05-14T06:29:07.015Z,64.21
2023-05-14T06:31:36.735Z,63.22
2023-05-14T06:34:05.125Z,62.23
2023-05-14T06:36:33.309Z,62.08
2023-05-14T06:39:01.563Z,60.73
2023-05-14T06:41:29.820Z,60.22
2023-05-14T06:43:58.043Z,60.41
2023-05-14T06:46:26.206Z,58.76
2023-05-14T06:48:58.110Z,58.54
2023-05-14T06:51:27.786Z,58.19
2023-05-14T06:53:56.326Z,59.07
2023-05-14T06:56:24.561Z,59.51
2023-05-14T06:58:52.789Z,57.62
2023-05-14T07:01:21.064Z,57.82
2023-05-14T07:03:49.378Z,57.52
2023-05-14T07:06:19.079Z,55.34
2023-05-14T07:08:47.384Z,54.80
2023-05-14T07:11:15.904Z,56.33
2023-05-14T07:13:44.265Z,54.25
2023-05-14T07:16:12.544Z,53.41
2023-05-14T07:18:41.069Z,53.97
2023-05-14T07:21:10.378Z,54.82
2023-05-14T07:23:40.086Z,54.45
2023-05-14T07:26:09.125Z,53.83
2023-05-14T07:28:37.405Z,51.87
2023-05-14T07:31:09.076Z,53.33
2023-05-14T07:33:37.528Z,53.86
2023-05-14T07:36:06.321Z,53.00
2023-05-14T07:38:34.629Z,54.37
2023-05-14T07:41:04.258Z,53.87
2023-05-14T07:43:32.541Z,52.72
2023-05-14T07:46:00.760Z,52.91
2023-05-14T07:48:28.996Z,53.20
2023-05-14T07:50:57.459Z,53.99
2023-05-14T07:53:26.288Z,52.56
2023-05-14T07:55:54.776Z,53.25
2023-05-14T07:58:25.148Z,55.23
2023-05-14T08:00:53.560Z,53.24
2023-05-14T08:03:22.176Z,51.89
2023-05-14T08:05:51.874Z,52.17
2023-05-14T08:08:20.099Z,53.51
2023-05-14T08:10:48.285Z,52.00
2023-05-14T08:13:16.553Z,54.28
2023-05-14T08:15:46.301Z,52.71
2023-05-14T08:18:14.530Z,51.62
2023-05-14T08:20:42.752Z,51.60
2023-05-14T08:23:11.192Z,53.32
2023-05-14T08:25:39.579Z,50.55
2023-05-14T08:28:08.598Z,50.70
2023-05-14T08:30:36.957Z,51.23
2023-05-14T08:33:06.817Z,50.21
2023-05-14T08:35:35.067Z,49.84
2023-05-14T08:38:03.602Z,49.21
2023-05-14T08:40:31.930Z,47.53
2023-05-14T08:43:01.530Z,46.17
2023-05-14T08:45:34.033Z,46.99
2023-05-14T08:48:05.718Z,48.63
2023-05-14T08:50:36.106Z,48.68
2023-05-14T08:53:04.360Z,47.52
2023-05-14T08:55:34.168Z,47.06
2023-05-14T08:58:02.549Z,48.14
2023-05-14T09:00:31.132Z,48.46
2023-05-14T09:03:01.128Z,48.21
2023-05-14T09:05:29.433Z,47.58
2023-05-14T09:07:59.118Z,48.76
2023-05-14T09:10:27.383Z,49.02
2023-05-14T09:12:55.778Z,47.54
2023-05-14T09:15:27.515Z,46.28
2023-05-14T09:17:55.877Z,46.05
2023-05-14T09:20:25.700Z,45.83
2023-05-14T09:22:55.052Z,45.01
2023-05-14T09:25:28.469Z,48.22
2023-05-14T09:27:58.994Z,46.38
2023-05-14T09:30:27.665Z,47.71
2023-05-14T09:32:56.336Z,48.79
2023-05-14T09:35:26.205Z,49.44
2023-05-14T09:37:55.970Z,47.47
2023-05-14T09:40:25.945Z,45.45
2023-05-14T09:42:54.431Z,46.94
2023-05-14T09:45:22.735Z,46.40
2023-05-14T09:47:51.509Z,47.52
2023-05-14T09:50:19.983Z,48.35
2023-05-14T09:52:48.835Z,44.86
2023-05-14T09:55:17.331Z,44.94
2023-05-14T09:57:47.050Z,48.58
2023-05-14T10:00:17.266Z,49.43
2023-05-14T10:02:47.926Z,46.77
2023-05-14T10:05:17.665Z,47.41
2023-05-14T10:07:48.908Z,46.31
2023-05-14T10:10:20.087Z,45.78
2023-05-14T10:12:54.212Z,47.47
2023-05-14T10:15:30.407Z,47.20
2023-05-14T10:18:04.687Z,43.38
2023-05-14T10:20:33.598Z,45.20
2023-05-14T10:23:02.150Z,43.64
2023-05-14T10:25:31.252Z,46.14
2023-05-14T10:28:01.532Z,44.75
2023-05-14T10:30:29.745Z,43.64
2023-05-14T10:33:09.058Z,43.40
2023-05-14T10:35:56.653Z,44.07
2023-05-14T10:38:28.290Z,44.28
2023-05-14T10:40:59.069Z,45.85
2023-05-14T10:43:31.098Z,44.94
2023-05-14T10:46:01.171Z,46.13
2023-05-14T10:48:30.052Z,44.72
2023-05-14T10:50:59.080Z,43.22
2023-05-14T10:53:35.773Z,39.92
2023-05-14T10:56:09.142Z,42.17
2023-05-14T10:58:40.159Z,42.57
2023-05-14T11:01:09.467Z,43.90
2023-05-14T11:03:43.012Z,43.96
2023-05-14T11:06:13.151Z,45.73
2023-05-14T11:08:43.934Z,45.54
2023-05-14T11:11:12.730Z,47.15
2023-05-14T11:13:45.808Z,46.76
2023-05-14T11:16:23.323Z,46.88
2023-05-14T11:19:02.082Z,47.89
2023-05-14T11:21:31.861Z,49.00
2023-05-14T11:24:03.810Z,47.34
2023-05-14T11:26:33.455Z,48.39
2023-05-14T11:29:03.230Z,48.51
2023-05-14T11:31:31.854Z,47.33
2023-05-14T11:34:00.487Z,46.37
2023-05-14T11:36:28.970Z,47.15
2023-05-14T11:38:57.212Z,46.68
2023-05-14T11:41:26.327Z,46.13
2023-05-14T11:43:54.792Z,45.84
2023-05-14T11:46:25.921Z,46.42
2023-05-14T11:48:54.294Z,47.22
2023-05-14T11:51:23.106Z,45.83
2023-05-14T11:53:51.354Z,47.11
2023-05-14T11:56:19.633Z,46.22
2023-05-14T11:58:51.175Z,46.00
2023-05-14T12:01:19.574Z,46.14
2023-05-14T12:03:49.336Z,47.79
2023-05-14T12:06:17.728Z,46.83
2023-05-14T12:08:48.628Z,47.80
2023-05-14T12:11:21.922Z,46.12
2023-05-14T12:13:50.264Z,46.66
2023-05-14T12:16:18.555Z,45.87
2023-05-14T12:18:49.269Z,45.80
2023-05-14T12:21:19.026Z,44.42
2023-05-14T12:23:48.334Z,45.35
2023-05-14T12:26:17.860Z,45.45
2023-05-14T12:28:50.272Z,45.78
2023-05-14T12:31:29.815Z,45.64
2023-05-14T12:33:59.616Z,45.91
2023-05-14T12:36:28.042Z,46.67
2023-05-14T12:39:00.587Z,46.84
2023-05-14T12:41:29.018Z,48.42
2023-05-14T12:43:57.173Z,46.26
2023-05-14T12:46:26.574Z,48.42
2023-05-14T12:48:55.142Z,46.92
2023-05-14T12:51:24.932Z,47.18
2023-05-14T12:53:54.256Z,46.27
2023-05-14T12:56:27.814Z,46.23
2023-05-14T12:58:57.301Z,45.12
2023-05-14T13:01:26.007Z,48.00
2023-05-14T13:03:55.461Z,50.32
2023-05-14T13:06:25.110Z,50.95
2023-05-14T13:08:53.374Z,49.51
2023-05-14T13:11:21.829Z,51.32
2023-05-14T13:13:50.033Z,49.69
2023-05-14T13:16:18.291Z,48.70
2023-05-14T13:18:46.725Z,49.08
2023-05-14T13:21:15.068Z,49.78
2023-05-14T13:23:44.690Z,50.23
2023-05-14T13:26:13.071Z,47.43
2023-05-14T13:28:41.838Z,46.86
2023-05-14T13:31:12.461Z,46.70
2023-05-14T13:33:41.990Z,46.27
2023-05-14T13:36:11.867Z,46.97
2023-05-14T13:38:40.221Z,46.87
2023-05-14T13:41:10.061Z,47.40
2023-05-14T13:43:38.438Z,45.70
2023-05-14T13:46:07.525Z,44.22
2023-05-14T13:48:37.348Z,45.79
2023-05-14T13:51:05.735Z,44.83
2023-05-14T13:53:33.967Z,43.83
2023-05-14T13:56:02.218Z,44.67
2023-05-14T13:58:32.139Z,44.23
2023-05-14T14:01:00.547Z,44.51
2023-05-14T14:03:28.970Z,44.66
2023-05-14T14:05:57.286Z,44.77
2023-05-14T14:08:25.837Z,47.51
2023-05-14T14:10:55.588Z,46.14
2023-05-14T14:13:24.643Z,47.09
2023-05-14T14:15:54.528Z,47.66
2023-05-14T14:18:23.003Z,46.75
2023-05-14T14:20:51.372Z,47.25
2023-05-14T14:23:20.004Z,46.20
2023-05-14T14:25:48.455Z,45.51
2023-05-14T14:28:16.921Z,44.68
2023-05-14T14:30:45.209Z,44.65
2023-05-14T14:33:14.995Z,43.03
2023-05-14T14:35:43.409Z,44.24
2023-05-14T14:38:11.810Z,42.86
2023-05-14T14:40:40.262Z,44.76
2023-05-14T14:43:08.521Z,45.73
2023-05-14T14:45:36.763Z,44.00
2023-05-14T14:48:26.869Z,41.87
2023-05-14T14:50:55.737Z,41.98
2023-05-14T14:53:24.864Z,41.67
2023-05-14T14:55:53.361Z,41.78
2023-05-14T14:58:23.086Z,45.32
2023-05-14T15:00:53.149Z,42.62
2023-05-14T15:03:22.097Z,45.54
2023-05-14T15:05:53.553Z,49.18
2023-05-14T15:08:25.981Z,51.85
2023-05-14T15:10:54.376Z,47.55
2023-05-14T15:13:22.709Z,47.40
2023-05-14T15:15:52.042Z,48.88
2023-05-14T15:18:20.625Z,51.77
2023-05-14T15:20:48.922Z,55.16
2023-05-14T15:23:18.674Z,51.81
2023-05-14T15:25:46.992Z,53.56
2023-05-14T15:28:15.789Z,53.79
2023-05-14T15:30:44.146Z,51.33
2023-05-14T15:33:12.446Z,50.86
2023-05-14T15:35:40.781Z,50.86
2023-05-14T15:38:09.131Z,50.27
2023-05-14T15:40:38.826Z,49.47
2023-05-14T15:43:07.064Z,48.98
2023-05-14T15:45:35.434Z,49.63
2023-05-14T15:48:03.713Z,49.36
2023-05-14T15:50:32.014Z,48.81
2023-05-14T15:53:01.390Z,48.43
2023-05-14T15:55:29.731Z,48.27
2023-05-14T15:57:59.413Z,48.11
2023-05-14T16:00:27.848Z,47.87
2023-05-14T16:02:56.472Z,48.81
2023-05-14T16:05:24.968Z,48.47
2023-05-14T16:07:53.436Z,48.09
2023-05-14T16:10:22.530Z,47.78
2023-05-14T16:12:51.210Z,47.36
2023-05-14T16:15:20.988Z,46.21
2023-05-14T16:17:49.553Z,46.46
2023-05-14T16:20:17.888Z,49.55
2023-05-14T16:22:46.163Z,48.77
2023-05-14T16:25:14.491Z,47.15
2023-05-14T16:27:42.764Z,47.08
2023-05-14T16:30:11.978Z,47.03
2023-05-14T16:32:42.343Z,47.22
2023-05-14T16:35:11.098Z,48.14
2023-05-14T16:37:39.457Z,49.05
2023-05-14T16:40:11.522Z,50.34
2023-05-14T16:42:40.216Z,50.19
2023-05-14T16:45:10.000Z,48.71
2023-05-14T16:47:38.574Z,46.83
2023-05-14T16:50:09.328Z,47.18
2023-05-14T16:52:37.618Z,46.13
2023-05-14T16:55:06.745Z,47.56
2023-05-14T16:57:35.478Z,49.10
2023-05-14T17:00:06.301Z,47.87
2023-05-14T17:02:34.786Z,48.17
2023-05-14T17:05:04.039Z,47.13
2023-05-14T17:07:34.010Z,47.98
2023-05-14T17:10:02.335Z,48.46
2023-05-14T17:12:30.733Z,50.30
2023-05-14T17:14:59.044Z,48.37
2023-05-14T17:17:27.811Z,49.45
2023-05-14T17:19:56.410Z,49.47
2023-05-14T17:22:24.744Z,50.16
2023-05-14T17:24:54.412Z,50.54
2023-05-14T17:27:22.809Z,52.94
2023-05-14T17:29:51.257Z,52.58
2023-05-14T17:32:19.641Z,52.43
2023-05-14T17:34:48.016Z,52.82
2023-05-14T17:37:16.524Z,51.01
2023-05-14T17:39:44.896Z,50.88
2023-05-14T17:42:14.780Z,52.54
2023-05-14T17:44:43.256Z,52.41
2023-05-14T17:47:11.640Z,50.83
2023-05-14T17:49:40.045Z,51.09
2023-05-14T17:52:08.714Z,51.04
2023-05-14T17:54:37.001Z,51.97
2023-05-14T17:57:05.826Z,53.10
2023-05-14T17:59:35.693Z,53.07
2023-05-14T18:02:05.685Z,52.28
2023-05-14T18:04:34.142Z,53.54
2023-05-14T18:07:03.249Z,57.58
2023-05-14T18:09:31.866Z,61.79
2023-05-14T18:12:00.215Z,63.76
2023-05-14T18:14:28.411Z,63.04
2023-05-14T18:16:58.294Z,64.95
2023-05-14T18:20:39.840Z,64.23
